sensor_id;sensor_type;location;lat;lon;timestamp;P1;durP1;ratioP1;P2;durP2;ratioP2
71148;SDS011;59072;42.144;25.200;2024-03-25T00:01:08;12.32;;;8.00;;
71148;SDS011;59072;42.144;25.200;2024-03-25T00:03:33;12.77;;;7.90;;
71148;SDS011;59072;42.144;25.200;2024-03-25T00:05:59;12.90;;;8.20;;
71148;SDS011;59072;42.144;25.200;2024-03-25T00:08:25;13.15;;;8.57;;
71148;SDS011;59072;42.144;25.200;2024-03-25T00:10:50;13.48;;;8.55;;
71148;SDS011;59072;42.144;25.200;2024-03-25T00:13:16;13.45;;;8.38;;
71148;SDS011;59072;42.144;25.200;2024-03-25T00:15:41;13.48;;;9.48;;
71148;SDS011;59072;42.144;25.200;2024-03-25T00:18:08;13.93;;;8.40;;
71148;SDS011;59072;42.144;25.200;2024-03-25T00:20:36;12.33;;;8.77;;
71148;SDS011;59072;42.144;25.200;2024-03-25T00:23:01;11.32;;;8.48;;
71148;SDS011;59072;42.144;25.200;2024-03-25T00:25:27;13.82;;;8.30;;
71148;SDS011;59072;42.144;25.200;2024-03-25T00:27:52;11.85;;;8.00;;
71148;SDS011;59072;42.144;25.200;2024-03-25T00:30:18;11.25;;;8.05;;
71148;SDS011;59072;42.144;25.200;2024-03-25T00:32:44;10.20;;;7.20;;
71148;SDS011;59072;42.144;25.200;2024-03-25T00:35:10;10.63;;;6.93;;
71148;SDS011;59072;42.144;25.200;2024-03-25T00:37:35;10.85;;;6.63;;
71148;SDS011;59072;42.144;25.200;2024-03-25T00:40:01;10.52;;;6.63;;
71148;SDS011;59072;42.144;25.200;2024-03-25T00:42:26;10.57;;;6.10;;
71148;SDS011;59072;42.144;25.200;2024-03-25T00:44:52;9.75;;;6.68;;
71148;SDS011;59072;42.144;25.200;2024-03-25T00:47:17;9.82;;;6.50;;
71148;SDS011;59072;42.144;25.200;2024-03-25T00:49:43;9.13;;;5.78;;
71148;SDS011;59072;42.144;25.200;2024-03-25T00:52:08;9.02;;;5.00;;
71148;SDS011;59072;42.144;25.200;2024-03-25T00:54:33;7.60;;;5.28;;
71148;SDS011;59072;42.144;25.200;2024-03-25T00:56:59;10.68;;;5.82;;
71148;SDS011;59072;42.144;25.200;2024-03-25T00:59:24;10.27;;;5.80;;
71148;SDS011;59072;42.144;25.200;2024-03-25T01:01:50;8.82;;;4.90;;
71148;SDS011;59072;42.144;25.200;2024-03-25T01:04:16;8.43;;;5.25;;
71148;SDS011;59072;42.144;25.200;2024-03-25T01:06:42;9.75;;;5.63;;
71148;SDS011;59072;42.144;25.200;2024-03-25T01:09:07;10.10;;;6.25;;
71148;SDS011;59072;42.144;25.200;2024-03-25T01:11:33;13.70;;;6.20;;
71148;SDS011;59072;42.144;25.200;2024-03-25T01:13:58;8.68;;;5.30;;
71148;SDS011;59072;42.144;25.200;2024-03-25T01:16:24;11.00;;;6.43;;
71148;SDS011;59072;42.144;25.200;2024-03-25T01:18:49;9.50;;;5.68;;
71148;SDS011;59072;42.144;25.200;2024-03-25T01:21:15;9.48;;;5.85;;
71148;SDS011;59072;42.144;25.200;2024-03-25T01:23:40;9.40;;;5.75;;
71148;SDS011;59072;42.144;25.200;2024-03-25T01:26:06;8.93;;;5.53;;
71148;SDS011;59072;42.144;25.200;2024-03-25T01:28:32;8.27;;;5.70;;
71148;SDS011;59072;42.144;25.200;2024-03-25T01:30:57;14.05;;;6.15;;
71148;SDS011;59072;42.144;25.200;2024-03-25T01:33:24;11.10;;;6.47;;
71148;SDS011;59072;42.144;25.200;2024-03-25T01:35:49;9.40;;;5.93;;
71148;SDS011;59072;42.144;25.200;2024-03-25T01:38:15;9.63;;;6.35;;
71148;SDS011;59072;42.144;25.200;2024-03-25T01:40:40;8.88;;;5.72;;
71148;SDS011;59072;42.144;25.200;2024-03-25T01:43:06;12.20;;;6.57;;
71148;SDS011;59072;42.144;25.200;2024-03-25T01:45:33;11.30;;;6.10;;
71148;SDS011;59072;42.144;25.200;2024-03-25T01:48:04;9.70;;;6.20;;
71148;SDS011;59072;42.144;25.200;2024-03-25T01:50:42;10.15;;;6.25;;
71148;SDS011;59072;42.144;25.200;2024-03-25T01:53:09;9.77;;;6.32;;
71148;SDS011;59072;42.144;25.200;2024-03-25T01:55:37;10.95;;;6.20;;
71148;SDS011;59072;42.144;25.200;2024-03-25T01:58:04;10.77;;;6.70;;
71148;SDS011;59072;42.144;25.200;2024-03-25T02:00:30;14.75;;;6.75;;
71148;SDS011;59072;42.144;25.200;2024-03-25T02:02:57;10.65;;;7.45;;
71148;SDS011;59072;42.144;25.200;2024-03-25T02:05:23;11.98;;;7.68;;
71148;SDS011;59072;42.144;25.200;2024-03-25T02:07:49;14.27;;;8.23;;
71148;SDS011;59072;42.144;25.200;2024-03-25T02:10:15;11.07;;;7.70;;
71148;SDS011;59072;42.144;25.200;2024-03-25T02:12:41;12.07;;;7.82;;
71148;SDS011;59072;42.144;25.200;2024-03-25T02:15:07;12.43;;;8.40;;
71148;SDS011;59072;42.144;25.200;2024-03-25T02:17:34;12.52;;;8.35;;
71148;SDS011;59072;42.144;25.200;2024-03-25T02:19:59;17.60;;;8.43;;
71148;SDS011;59072;42.144;25.200;2024-03-25T02:22:25;11.85;;;7.70;;
71148;SDS011;59072;42.144;25.200;2024-03-25T02:24:52;13.65;;;7.85;;
71148;SDS011;59072;42.144;25.200;2024-03-25T02:27:18;13.45;;;8.40;;
71148;SDS011;59072;42.144;25.200;2024-03-25T02:29:44;21.30;;;7.00;;
71148;SDS011;59072;42.144;25.200;2024-03-25T02:32:10;8.10;;;3.83;;
71148;SDS011;59072;42.144;25.200;2024-03-25T02:34:39;6.95;;;2.13;;
71148;SDS011;59072;42.144;25.200;2024-03-25T02:37:06;2.10;;;0.90;;
71148;SDS011;59072;42.144;25.200;2024-03-25T02:39:32;2.08;;;0.50;;
71148;SDS011;59072;42.144;25.200;2024-03-25T02:41:58;2.55;;;0.50;;
71148;SDS011;59072;42.144;25.200;2024-03-25T02:44:24;0.45;;;0.28;;
71148;SDS011;59072;42.144;25.200;2024-03-25T02:46:50;0.50;;;0.32;;
71148;SDS011;59072;42.144;25.200;2024-03-25T02:49:17;1.45;;;0.57;;
71148;SDS011;59072;42.144;25.200;2024-03-25T02:51:42;0.35;;;0.20;;
71148;SDS011;59072;42.144;25.200;2024-03-25T02:54:08;1.23;;;0.30;;
71148;SDS011;59072;42.144;25.200;2024-03-25T02:56:34;0.43;;;0.30;;
71148;SDS011;59072;42.144;25.200;2024-03-25T02:59:00;8.25;;;0.55;;
71148;SDS011;59072;42.144;25.200;2024-03-25T03:01:25;0.70;;;0.22;;
71148;SDS011;59072;42.144;25.200;2024-03-25T03:03:51;0.32;;;0.20;;
71148;SDS011;59072;42.144;25.200;2024-03-25T03:06:16;0.98;;;0.28;;
71148;SDS011;59072;42.144;25.200;2024-03-25T03:08:41;0.90;;;0.32;;
71148;SDS011;59072;42.144;25.200;2024-03-25T03:11:07;0.90;;;0.20;;
71148;SDS011;59072;42.144;25.200;2024-03-25T03:13:32;0.90;;;0.20;;
71148;SDS011;59072;42.144;25.200;2024-03-25T03:15:57;1.20;;;0.20;;
71148;SDS011;59072;42.144;25.200;2024-03-25T03:18:23;1.48;;;0.25;;
71148;SDS011;59072;42.144;25.200;2024-03-25T03:20:48;1.08;;;0.40;;
71148;SDS011;59072;42.144;25.200;2024-03-25T03:23:14;0.20;;;0.17;;
71148;SDS011;59072;42.144;25.200;2024-03-25T03:25:40;0.22;;;0.17;;
71148;SDS011;59072;42.144;25.200;2024-03-25T03:28:06;1.90;;;0.28;;
71148;SDS011;59072;42.144;25.200;2024-03-25T03:30:31;0.43;;;0.20;;
71148;SDS011;59072;42.144;25.200;2024-03-25T03:32:56;0.98;;;0.30;;
71148;SDS011;59072;42.144;25.200;2024-03-25T03:35:22;2.70;;;0.30;;
71148;SDS011;59072;42.144;25.200;2024-03-25T03:37:47;0.45;;;0.30;;
71148;SDS011;59072;42.144;25.200;2024-03-25T03:40:13;0.47;;;0.20;;
71148;SDS011;59072;42.144;25.200;2024-03-25T03:42:39;1.85;;;0.70;;
71148;SDS011;59072;42.144;25.200;2024-03-25T03:45:04;1.38;;;0.32;;
71148;SDS011;59072;42.144;25.200;2024-03-25T03:47:30;1.48;;;0.43;;
71148;SDS011;59072;42.144;25.200;2024-03-25T03:49:56;1.08;;;0.43;;
71148;SDS011;59072;42.144;25.200;2024-03-25T03:52:22;0.57;;;0.30;;
71148;SDS011;59072;42.144;25.200;2024-03-25T03:54:47;1.42;;;0.40;;
71148;SDS011;59072;42.144;25.200;2024-03-25T03:57:13;2.85;;;0.35;;
71148;SDS011;59072;42.144;25.200;2024-03-25T03:59:38;0.55;;;0.30;;
71148;SDS011;59072;42.144;25.200;2024-03-25T04:02:04;1.45;;;0.43;;
71148;SDS011;59072;42.144;25.200;2024-03-25T04:04:29;0.98;;;0.38;;
71148;SDS011;59072;42.144;25.200;2024-03-25T04:06:55;1.05;;;0.40;;
71148;SDS011;59072;42.144;25.200;2024-03-25T04:09:21;0.85;;;0.40;;
71148;SDS011;59072;42.144;25.200;2024-03-25T04:11:48;1.38;;;0.40;;
71148;SDS011;59072;42.144;25.200;2024-03-25T04:14:14;0.60;;;0.50;;
71148;SDS011;59072;42.144;25.200;2024-03-25T04:16:40;0.95;;;0.60;;
71148;SDS011;59072;42.144;25.200;2024-03-25T04:19:05;0.40;;;0.30;;
71148;SDS011;59072;42.144;25.200;2024-03-25T04:21:30;0.90;;;0.50;;
71148;SDS011;59072;42.144;25.200;2024-03-25T04:23:56;0.32;;;0.30;;
71148;SDS011;59072;42.144;25.200;2024-03-25T04:26:21;1.15;;;0.70;;
71148;SDS011;59072;42.144;25.200;2024-03-25T04:28:47;2.28;;;0.68;;
71148;SDS011;59072;42.144;25.200;2024-03-25T04:31:12;5.70;;;2.40;;
71148;SDS011;59072;42.144;25.200;2024-03-25T04:33:38;4.85;;;2.60;;
71148;SDS011;59072;42.144;25.200;2024-03-25T04:36:03;2.55;;;1.40;;
71148;SDS011;59072;42.144;25.200;2024-03-25T04:38:29;2.05;;;1.50;;
71148;SDS011;59072;42.144;25.200;2024-03-25T04:40:54;3.08;;;1.70;;
71148;SDS011;59072;42.144;25.200;2024-03-25T04:43:20;1.35;;;1.00;;
71148;SDS011;59072;42.144;25.200;2024-03-25T04:45:45;1.80;;;1.00;;
71148;SDS011;59072;42.144;25.200;2024-03-25T04:48:11;3.70;;;1.20;;
71148;SDS011;59072;42.144;25.200;2024-03-25T04:50:36;1.60;;;0.80;;
71148;SDS011;59072;42.144;25.200;2024-03-25T04:53:02;2.75;;;1.02;;
71148;SDS011;59072;42.144;25.200;2024-03-25T04:55:27;2.95;;;1.23;;
71148;SDS011;59072;42.144;25.200;2024-03-25T04:57:53;2.92;;;1.40;;
71148;SDS011;59072;42.144;25.200;2024-03-25T05:00:18;3.42;;;1.30;;
71148;SDS011;59072;42.144;25.200;2024-03-25T05:02:43;1.98;;;1.00;;
71148;SDS011;59072;42.144;25.200;2024-03-25T05:05:09;2.17;;;0.85;;
71148;SDS011;59072;42.144;25.200;2024-03-25T05:07:35;5.38;;;1.30;;
71148;SDS011;59072;42.144;25.200;2024-03-25T05:10:00;3.63;;;1.70;;
71148;SDS011;59072;42.144;25.200;2024-03-25T05:12:26;3.70;;;2.03;;
71148;SDS011;59072;42.144;25.200;2024-03-25T05:14:55;4.50;;;1.98;;
71148;SDS011;59072;42.144;25.200;2024-03-25T05:17:21;4.07;;;2.05;;
71148;SDS011;59072;42.144;25.200;2024-03-25T05:19:46;8.23;;;3.53;;
71148;SDS011;59072;42.144;25.200;2024-03-25T05:22:12;8.50;;;5.00;;
71148;SDS011;59072;42.144;25.200;2024-03-25T05:24:37;7.90;;;4.60;;
71148;SDS011;59072;42.144;25.200;2024-03-25T05:27:03;3.92;;;2.17;;
71148;SDS011;59072;42.144;25.200;2024-03-25T05:29:28;7.05;;;2.72;;
71148;SDS011;59072;42.144;25.200;2024-03-25T05:32:00;5.30;;;2.33;;
71148;SDS011;59072;42.144;25.200;2024-03-25T05:34:27;4.20;;;1.50;;
71148;SDS011;59072;42.144;25.200;2024-03-25T05:36:53;2.75;;;1.33;;
71148;SDS011;59072;42.144;25.200;2024-03-25T05:39:18;1.80;;;1.40;;
71148;SDS011;59072;42.144;25.200;2024-03-25T05:41:45;2.38;;;0.90;;
71148;SDS011;59072;42.144;25.200;2024-03-25T05:44:11;1.42;;;0.82;;
71148;SDS011;59072;42.144;25.200;2024-03-25T05:46:36;0.30;;;0.30;;
71148;SDS011;59072;42.144;25.200;2024-03-25T05:49:03;0.63;;;0.60;;
71148;SDS011;59072;42.144;25.200;2024-03-25T05:51:29;2.08;;;1.45;;
71148;SDS011;59072;42.144;25.200;2024-03-25T05:53:55;0.80;;;0.60;;
71148;SDS011;59072;42.144;25.200;2024-03-25T05:56:20;1.92;;;0.80;;
71148;SDS011;59072;42.144;25.200;2024-03-25T05:58:46;2.92;;;1.50;;
71148;SDS011;59072;42.144;25.200;2024-03-25T06:01:11;2.45;;;1.00;;
71148;SDS011;59072;42.144;25.200;2024-03-25T06:03:37;1.50;;;0.88;;
71148;SDS011;59072;42.144;25.200;2024-03-25T06:06:03;0.65;;;0.52;;
71148;SDS011;59072;42.144;25.200;2024-03-25T06:08:28;1.30;;;0.77;;
71148;SDS011;59072;42.144;25.200;2024-03-25T06:10:54;1.90;;;1.08;;
71148;SDS011;59072;42.144;25.200;2024-03-25T06:13:20;1.50;;;1.20;;
71148;SDS011;59072;42.144;25.200;2024-03-25T06:15:45;2.58;;;0.98;;
71148;SDS011;59072;42.144;25.200;2024-03-25T06:18:11;3.45;;;1.38;;
71148;SDS011;59072;42.144;25.200;2024-03-25T06:20:37;2.70;;;1.30;;
71148;SDS011;59072;42.144;25.200;2024-03-25T06:23:03;1.42;;;1.33;;
71148;SDS011;59072;42.144;25.200;2024-03-25T06:25:29;3.13;;;1.25;;
71148;SDS011;59072;42.144;25.200;2024-03-25T06:27:55;2.22;;;1.00;;
71148;SDS011;59072;42.144;25.200;2024-03-25T06:30:21;1.60;;;1.00;;
71148;SDS011;59072;42.144;25.200;2024-03-25T06:33:05;2.67;;;1.10;;
71148;SDS011;59072;42.144;25.200;2024-03-25T06:35:49;2.47;;;1.20;;
71148;SDS011;59072;42.144;25.200;2024-03-25T06:38:15;2.42;;;1.52;;
71148;SDS011;59072;42.144;25.200;2024-03-25T06:40:40;3.22;;;1.45;;
71148;SDS011;59072;42.144;25.200;2024-03-25T06:43:06;2.08;;;1.20;;
71148;SDS011;59072;42.144;25.200;2024-03-25T06:45:31;4.80;;;1.50;;
71148;SDS011;59072;42.144;25.200;2024-03-25T06:47:57;3.47;;;1.75;;
71148;SDS011;59072;42.144;25.200;2024-03-25T06:50:22;4.13;;;1.48;;
71148;SDS011;59072;42.144;25.200;2024-03-25T06:52:48;5.00;;;1.80;;
71148;SDS011;59072;42.144;25.200;2024-03-25T06:55:14;1.95;;;1.48;;
71148;SDS011;59072;42.144;25.200;2024-03-25T06:57:40;3.03;;;1.48;;
71148;SDS011;59072;42.144;25.200;2024-03-25T07:00:05;4.53;;;1.70;;
71148;SDS011;59072;42.144;25.200;2024-03-25T07:02:35;3.90;;;1.42;;
71148;SDS011;59072;42.144;25.200;2024-03-25T07:05:00;4.03;;;1.70;;
71148;SDS011;59072;42.144;25.200;2024-03-25T07:07:26;7.70;;;1.95;;
71148;SDS011;59072;42.144;25.200;2024-03-25T07:09:51;2.60;;;1.45;;
71148;SDS011;59072;42.144;25.200;2024-03-25T07:12:16;2.65;;;1.48;;
71148;SDS011;59072;42.144;25.200;2024-03-25T07:14:42;10.63;;;3.80;;
71148;SDS011;59072;42.144;25.200;2024-03-25T07:17:07;3.70;;;1.35;;
71148;SDS011;59072;42.144;25.200;2024-03-25T07:19:32;5.13;;;2.35;;
71148;SDS011;59072;42.144;25.200;2024-03-25T07:21:58;2.97;;;1.52;;
71148;SDS011;59072;42.144;25.200;2024-03-25T07:24:23;3.22;;;1.75;;
71148;SDS011;59072;42.144;25.200;2024-03-25T07:26:48;2.95;;;1.70;;
71148;SDS011;59072;42.144;25.200;2024-03-25T07:29:15;4.20;;;2.00;;
71148;SDS011;59072;42.144;25.200;2024-03-25T07:31:40;3.75;;;1.95;;
71148;SDS011;59072;42.144;25.200;2024-03-25T07:34:06;4.65;;;2.50;;
71148;SDS011;59072;42.144;25.200;2024-03-25T07:36:31;5.90;;;3.10;;
71148;SDS011;59072;42.144;25.200;2024-03-25T07:39:00;8.82;;;4.25;;
71148;SDS011;59072;42.144;25.200;2024-03-25T07:41:25;4.55;;;2.38;;
71148;SDS011;59072;42.144;25.200;2024-03-25T07:43:50;6.13;;;3.30;;
71148;SDS011;59072;42.144;25.200;2024-03-25T07:46:16;7.03;;;3.65;;
71148;SDS011;59072;42.144;25.200;2024-03-25T07:48:41;5.90;;;3.75;;
71148;SDS011;59072;42.144;25.200;2024-03-25T07:51:07;8.23;;;3.70;;
71148;SDS011;59072;42.144;25.200;2024-03-25T07:53:32;7.55;;;3.25;;
71148;SDS011;59072;42.144;25.200;2024-03-25T07:55:58;5.47;;;3.00;;
71148;SDS011;59072;42.144;25.200;2024-03-25T07:58:23;6.90;;;3.38;;
71148;SDS011;59072;42.144;25.200;2024-03-25T08:00:49;6.47;;;3.00;;
71148;SDS011;59072;42.144;25.200;2024-03-25T08:03:15;8.75;;;3.17;;
71148;SDS011;59072;42.144;25.200;2024-03-25T08:05:40;6.25;;;3.05;;
71148;SDS011;59072;42.144;25.200;2024-03-25T08:08:06;6.50;;;2.90;;
71148;SDS011;59072;42.144;25.200;2024-03-25T08:10:31;5.88;;;3.08;;
71148;SDS011;59072;42.144;25.200;2024-03-25T08:12:57;6.30;;;2.88;;
71148;SDS011;59072;42.144;25.200;2024-03-25T08:15:22;5.07;;;2.80;;
71148;SDS011;59072;42.144;25.200;2024-03-25T08:17:47;6.20;;;2.72;;
71148;SDS011;59072;42.144;25.200;2024-03-25T08:20:13;5.82;;;3.00;;
71148;SDS011;59072;42.144;25.200;2024-03-25T08:22:38;6.85;;;3.42;;
71148;SDS011;59072;42.144;25.200;2024-03-25T08:25:04;6.55;;;3.28;;
71148;SDS011;59072;42.144;25.200;2024-03-25T08:27:30;5.85;;;2.50;;
71148;SDS011;59072;42.144;25.200;2024-03-25T08:29:55;5.70;;;3.15;;
71148;SDS011;59072;42.144;25.200;2024-03-25T08:32:21;6.55;;;3.10;;
71148;SDS011;59072;42.144;25.200;2024-03-25T08:34:46;5.55;;;3.00;;
71148;SDS011;59072;42.144;25.200;2024-03-25T08:37:12;5.63;;;2.88;;
71148;SDS011;59072;42.144;25.200;2024-03-25T08:39:37;5.78;;;2.67;;
71148;SDS011;59072;42.144;25.200;2024-03-25T08:42:03;9.25;;;3.47;;
71148;SDS011;59072;42.144;25.200;2024-03-25T08:44:28;6.18;;;2.63;;
71148;SDS011;59072;42.144;25.200;2024-03-25T08:46:54;4.72;;;2.65;;
71148;SDS011;59072;42.144;25.200;2024-03-25T08:49:19;4.82;;;2.40;;
71148;SDS011;59072;42.144;25.200;2024-03-25T08:51:45;6.45;;;3.33;;
71148;SDS011;59072;42.144;25.200;2024-03-25T08:54:10;6.55;;;2.90;;
71148;SDS011;59072;42.144;25.200;2024-03-25T08:56:36;9.65;;;2.78;;
71148;SDS011;59072;42.144;25.200;2024-03-25T08:59:02;6.32;;;2.55;;
71148;SDS011;59072;42.144;25.200;2024-03-25T09:01:28;6.18;;;3.08;;
71148;SDS011;59072;42.144;25.200;2024-03-25T09:03:53;5.47;;;2.38;;
71148;SDS011;59072;42.144;25.200;2024-03-25T09:06:19;6.55;;;2.60;;
71148;SDS011;59072;42.144;25.200;2024-03-25T09:08:44;6.72;;;2.28;;
71148;SDS011;59072;42.144;25.200;2024-03-25T09:11:28;6.47;;;2.30;;
71148;SDS011;59072;42.144;25.200;2024-03-25T09:13:54;6.53;;;2.70;;
71148;SDS011;59072;42.144;25.200;2024-03-25T09:16:19;6.55;;;2.53;;
71148;SDS011;59072;42.144;25.200;2024-03-25T09:18:44;7.30;;;2.83;;
71148;SDS011;59072;42.144;25.200;2024-03-25T09:21:10;3.42;;;1.92;;
71148;SDS011;59072;42.144;25.200;2024-03-25T09:23:36;4.85;;;2.10;;
71148;SDS011;59072;42.144;25.200;2024-03-25T09:26:01;15.90;;;2.95;;
71148;SDS011;59072;42.144;25.200;2024-03-25T09:28:26;6.22;;;2.20;;
71148;SDS011;59072;42.144;25.200;2024-03-25T09:30:52;4.80;;;1.80;;
71148;SDS011;59072;42.144;25.200;2024-03-25T09:33:17;5.18;;;1.63;;
71148;SDS011;59072;42.144;25.200;2024-03-25T09:35:43;4.88;;;2.08;;
71148;SDS011;59072;42.144;25.200;2024-03-25T09:38:08;3.80;;;1.73;;
71148;SDS011;59072;42.144;25.200;2024-03-25T09:40:35;4.00;;;1.83;;
71148;SDS011;59072;42.144;25.200;2024-03-25T09:43:03;7.28;;;2.25;;
71148;SDS011;59072;42.144;25.200;2024-03-25T09:45:31;6.15;;;2.22;;
71148;SDS011;59072;42.144;25.200;2024-03-25T09:47:58;4.18;;;2.63;;
71148;SDS011;59072;42.144;25.200;2024-03-25T09:50:24;5.70;;;3.10;;
71148;SDS011;59072;42.144;25.200;2024-03-25T09:52:50;4.32;;;2.10;;
71148;SDS011;59072;42.144;25.200;2024-03-25T09:55:15;4.18;;;2.38;;
71148;SDS011;59072;42.144;25.200;2024-03-25T09:57:44;8.05;;;2.35;;
71148;SDS011;59072;42.144;25.200;2024-03-25T10:00:10;3.55;;;2.05;;
71148;SDS011;59072;42.144;25.200;2024-03-25T10:02:40;4.57;;;2.00;;
71148;SDS011;59072;42.144;25.200;2024-03-25T10:05:06;4.53;;;1.90;;
71148;SDS011;59072;42.144;25.200;2024-03-25T10:07:32;4.97;;;2.22;;
71148;SDS011;59072;42.144;25.200;2024-03-25T10:09:58;2.83;;;1.48;;
71148;SDS011;59072;42.144;25.200;2024-03-25T10:12:24;4.10;;;1.60;;
71148;SDS011;59072;42.144;25.200;2024-03-25T10:14:50;3.00;;;1.45;;
71148;SDS011;59072;42.144;25.200;2024-03-25T10:17:15;3.38;;;1.52;;
71148;SDS011;59072;42.144;25.200;2024-03-25T10:19:41;5.35;;;1.83;;
71148;SDS011;59072;42.144;25.200;2024-03-25T10:22:07;3.53;;;1.50;;
71148;SDS011;59072;42.144;25.200;2024-03-25T10:24:44;3.17;;;1.23;;
71148;SDS011;59072;42.144;25.200;2024-03-25T10:27:11;6.85;;;1.10;;
71148;SDS011;59072;42.144;25.200;2024-03-25T10:29:51;1.98;;;1.17;;
71148;SDS011;59072;42.144;25.200;2024-03-25T10:32:22;2.15;;;1.25;;
71148;SDS011;59072;42.144;25.200;2024-03-25T10:34:49;3.53;;;1.30;;
71148;SDS011;59072;42.144;25.200;2024-03-25T10:37:15;4.57;;;1.40;;
71148;SDS011;59072;42.144;25.200;2024-03-25T10:39:49;3.40;;;1.60;;
71148;SDS011;59072;42.144;25.200;2024-03-25T10:42:20;4.25;;;1.77;;
71148;SDS011;59072;42.144;25.200;2024-03-25T10:44:47;1.60;;;1.05;;
71148;SDS011;59072;42.144;25.200;2024-03-25T10:47:14;2.95;;;1.08;;
71148;SDS011;59072;42.144;25.200;2024-03-25T10:52:21;3.05;;;1.20;;
71148;SDS011;59072;42.144;25.200;2024-03-25T10:54:47;2.55;;;1.27;;
71148;SDS011;59072;42.144;25.200;2024-03-25T10:57:13;3.25;;;1.30;;
71148;SDS011;59072;42.144;25.200;2024-03-25T10:59:39;1.70;;;0.80;;
71148;SDS011;59072;42.144;25.200;2024-03-25T11:02:08;3.95;;;1.25;;
71148;SDS011;59072;42.144;25.200;2024-03-25T11:04:33;2.40;;;1.10;;
71148;SDS011;59072;42.144;25.200;2024-03-25T11:07:10;2.90;;;1.13;;
71148;SDS011;59072;42.144;25.200;2024-03-25T11:09:39;3.05;;;1.00;;
71148;SDS011;59072;42.144;25.200;2024-03-25T11:12:06;1.83;;;0.82;;
71148;SDS011;59072;42.144;25.200;2024-03-25T11:14:34;1.25;;;0.90;;
71148;SDS011;59072;42.144;25.200;2024-03-25T11:17:00;1.17;;;0.77;;
71148;SDS011;59072;42.144;25.200;2024-03-25T11:19:27;2.33;;;1.00;;
71148;SDS011;59072;42.144;25.200;2024-03-25T11:21:54;1.38;;;0.80;;
71148;SDS011;59072;42.144;25.200;2024-03-25T11:24:31;1.97;;;0.83;;
71148;SDS011;59072;42.144;25.200;2024-03-25T11:26:56;1.67;;;1.10;;
71148;SDS011;59072;42.144;25.200;2024-03-25T11:29:22;2.10;;;1.10;;
71148;SDS011;59072;42.144;25.200;2024-03-25T11:31:50;1.08;;;0.70;;
71148;SDS011;59072;42.144;25.200;2024-03-25T11:34:17;1.08;;;0.82;;
71148;SDS011;59072;42.144;25.200;2024-03-25T11:36:43;1.90;;;0.93;;
71148;SDS011;59072;42.144;25.200;2024-03-25T11:39:08;1.10;;;0.80;;
71148;SDS011;59072;42.144;25.200;2024-03-25T11:41:43;1.00;;;0.70;;
71148;SDS011;59072;42.144;25.200;2024-03-25T11:44:10;2.22;;;1.10;;
71148;SDS011;59072;42.144;25.200;2024-03-25T11:46:37;2.13;;;0.90;;
71148;SDS011;59072;42.144;25.200;2024-03-25T11:49:06;1.58;;;0.93;;
71148;SDS011;59072;42.144;25.200;2024-03-25T11:51:34;2.90;;;1.00;;
71148;SDS011;59072;42.144;25.200;2024-03-25T11:54:02;2.10;;;0.90;;
71148;SDS011;59072;42.144;25.200;2024-03-25T11:56:29;1.90;;;0.90;;
71148;SDS011;59072;42.144;25.200;2024-03-25T11:58:59;1.95;;;0.75;;
71148;SDS011;59072;42.144;25.200;2024-03-25T12:01:25;4.35;;;1.10;;
71148;SDS011;59072;42.144;25.200;2024-03-25T12:03:51;1.63;;;1.10;;
71148;SDS011;59072;42.144;25.200;2024-03-25T12:06:16;1.77;;;0.95;;
71148;SDS011;59072;42.144;25.200;2024-03-25T12:08:42;2.70;;;1.25;;
71148;SDS011;59072;42.144;25.200;2024-03-25T12:11:27;1.30;;;1.00;;
71148;SDS011;59072;42.144;25.200;2024-03-25T12:13:53;4.57;;;2.42;;
71148;SDS011;59072;42.144;25.200;2024-03-25T12:16:19;6.47;;;4.97;;
71148;SDS011;59072;42.144;25.200;2024-03-25T12:18:44;1.92;;;0.90;;
71148;SDS011;59072;42.144;25.200;2024-03-25T12:21:10;3.88;;;1.63;;
71148;SDS011;59072;42.144;25.200;2024-03-25T12:23:36;2.67;;;1.00;;
71148;SDS011;59072;42.144;25.200;2024-03-25T12:26:02;2.38;;;0.95;;
71148;SDS011;59072;42.144;25.200;2024-03-25T12:28:31;2.25;;;0.88;;
71148;SDS011;59072;42.144;25.200;2024-03-25T12:30:56;1.13;;;0.80;;
71148;SDS011;59072;42.144;25.200;2024-03-25T12:33:22;1.95;;;0.80;;
71148;SDS011;59072;42.144;25.200;2024-03-25T12:35:48;2.08;;;0.82;;
71148;SDS011;59072;42.144;25.200;2024-03-25T12:38:22;0.95;;;0.73;;
71148;SDS011;59072;42.144;25.200;2024-03-25T12:40:48;3.78;;;0.88;;
71148;SDS011;59072;42.144;25.200;2024-03-25T12:43:14;1.77;;;0.60;;
71148;SDS011;59072;42.144;25.200;2024-03-25T12:45:40;3.88;;;1.35;;
71148;SDS011;59072;42.144;25.200;2024-03-25T12:48:06;1.88;;;0.88;;
71148;SDS011;59072;42.144;25.200;2024-03-25T12:50:32;1.48;;;0.70;;
71148;SDS011;59072;42.144;25.200;2024-03-25T12:52:57;0.93;;;0.60;;
71148;SDS011;59072;42.144;25.200;2024-03-25T12:55:23;1.17;;;0.60;;
71148;SDS011;59072;42.144;25.200;2024-03-25T12:57:48;1.75;;;0.70;;
71148;SDS011;59072;42.144;25.200;2024-03-25T13:00:14;4.47;;;0.90;;
71148;SDS011;59072;42.144;25.200;2024-03-25T13:02:40;1.40;;;1.00;;
71148;SDS011;59072;42.144;25.200;2024-03-25T13:05:05;3.58;;;1.10;;
71148;SDS011;59072;42.144;25.200;2024-03-25T13:07:31;3.17;;;0.77;;
71148;SDS011;59072;42.144;25.200;2024-03-25T13:09:57;2.05;;;0.68;;
71148;SDS011;59072;42.144;25.200;2024-03-25T13:12:23;2.40;;;0.80;;
71148;SDS011;59072;42.144;25.200;2024-03-25T13:14:48;3.53;;;1.27;;
71148;SDS011;59072;42.144;25.200;2024-03-25T13:17:14;2.25;;;0.80;;
71148;SDS011;59072;42.144;25.200;2024-03-25T13:19:39;0.73;;;0.55;;
71148;SDS011;59072;42.144;25.200;2024-03-25T13:22:04;5.68;;;1.42;;
71148;SDS011;59072;42.144;25.200;2024-03-25T13:24:30;2.92;;;1.00;;
71148;SDS011;59072;42.144;25.200;2024-03-25T13:26:56;1.58;;;1.08;;
71148;SDS011;59072;42.144;25.200;2024-03-25T13:29:21;5.10;;;1.00;;
71148;SDS011;59072;42.144;25.200;2024-03-25T13:31:47;3.53;;;1.08;;
71148;SDS011;59072;42.144;25.200;2024-03-25T13:34:12;3.78;;;1.10;;
71148;SDS011;59072;42.144;25.200;2024-03-25T13:36:38;2.55;;;0.80;;
71148;SDS011;59072;42.144;25.200;2024-03-25T13:39:03;1.48;;;0.88;;
71148;SDS011;59072;42.144;25.200;2024-03-25T13:41:29;2.50;;;0.90;;
71148;SDS011;59072;42.144;25.200;2024-03-25T13:43:54;2.38;;;0.90;;
71148;SDS011;59072;42.144;25.200;2024-03-25T13:46:19;1.70;;;0.95;;
71148;SDS011;59072;42.144;25.200;2024-03-25T13:48:47;2.53;;;1.00;;
71148;SDS011;59072;42.144;25.200;2024-03-25T13:51:12;3.17;;;1.15;;
71148;SDS011;59072;42.144;25.200;2024-03-25T13:53:38;12.35;;;1.63;;
71148;SDS011;59072;42.144;25.200;2024-03-25T13:56:03;4.00;;;1.38;;
71148;SDS011;59072;42.144;25.200;2024-03-25T13:58:31;4.28;;;1.20;;
71148;SDS011;59072;42.144;25.200;2024-03-25T14:00:56;4.18;;;1.73;;
71148;SDS011;59072;42.144;25.200;2024-03-25T14:03:22;3.60;;;2.05;;
71148;SDS011;59072;42.144;25.200;2024-03-25T14:05:48;2.33;;;1.58;;
71148;SDS011;59072;42.144;25.200;2024-03-25T14:08:13;1.83;;;1.08;;
71148;SDS011;59072;42.144;25.200;2024-03-25T14:10:38;3.65;;;1.17;;
71148;SDS011;59072;42.144;25.200;2024-03-25T14:13:04;2.78;;;0.88;;
71148;SDS011;59072;42.144;25.200;2024-03-25T14:15:30;2.78;;;1.08;;
71148;SDS011;59072;42.144;25.200;2024-03-25T14:17:56;3.08;;;1.13;;
71148;SDS011;59072;42.144;25.200;2024-03-25T14:20:21;3.20;;;1.05;;
71148;SDS011;59072;42.144;25.200;2024-03-25T14:22:47;3.22;;;1.00;;
71148;SDS011;59072;42.144;25.200;2024-03-25T14:25:12;1.55;;;0.90;;
71148;SDS011;59072;42.144;25.200;2024-03-25T14:27:38;2.35;;;0.93;;
71148;SDS011;59072;42.144;25.200;2024-03-25T14:30:04;2.67;;;1.10;;